Umatac, Guam
Current Conditions -  °F | °C
As of 5:54 PM on Thursday 18 Dec 2014 (Local Time) from PGUM Reporting Station
Clear Clear  
Wind Chill: 83°   Ceiling: Unl
Heat Index: 91°   Visibility: 10mi
Dew Point: 76°   Wind: 12mph
Humidity: 79%   Direction: 60°ENE
Pressure: 29.91"   Gusts: NA
Location:  13.3°N, 144.66°E
Report Text: PGUM 180754Z 06010KT 10SM CLR 28/24 A2991 RMK AO2 SLP119 T02830244
Loading
Personal Weather Stations






























Interactive Weather Map New forecast layout! Learn more

10-Day Weather Forecast

Advertisements
Track Severe Weather on mobile